CheckWX is a tool to help pilots better visualize weather data.  It is not intended as a substitute for an official pre-flight weather briefing.

20:27:07 UTC

KBVO METAR
Bartlesville Municipal Airport
Bartlesville, Oklahoma, USA
Current

34 mins ago

KBVO 201953Z AUTO 21010KT 10SM CLR 25/06 A2994 RMK AO2 SLP133 T02500061
Observed
Apr-20 @ 19:53 UTC
Wind
  • 210° at 10 KTS
Visibility
10 SM
Flight Rules
VFR
Cloud Levels
  • Clear skies
Temperature
25°C / 77°F
Dewpoint
C / 43°F
Humidity
30%
Altimeter
29.94" Hg
Pressure
1013.92 hPa
Previous

2 hours ago

KBVO 201853Z AUTO 21008KT 180V240 10SM CLR 24/05 A2997 RMK AO2 SLP143 T02440050
Observed
Apr-20 @ 18:53 UTC
Wind
  • 210° at 8 KTS
Visibility
10 SM
Flight Rules
VFR
Cloud Levels
  • Clear skies
Temperature
24°C / 75°F
Dewpoint
C / 41°F
Humidity
29%
Altimeter
29.97" Hg
Pressure
1014.92 hPa
Previous

3 hours ago

KBVO 201753Z AUTO 16009KT 10SM CLR 23/05 A2999 RMK AO2 SLP150 T02280050 10228 20017 58016
Observed
Apr-20 @ 17:53 UTC
Wind
  • 160° at 9 KTS
Visibility
10 SM
Flight Rules
VFR
Cloud Levels
  • Clear skies
Temperature
23°C / 73°F
Dewpoint
C / 41°F
Humidity
31%
Altimeter
29.99" Hg
Pressure
1015.62 hPa